createdAt,value
2019-02-28T00:01:07.759Z,52.13
2019-02-28T00:03:35.996Z,54.90
2019-02-28T00:06:02.307Z,61.05
2019-02-28T00:08:28.598Z,65.17
2019-02-28T00:10:54.964Z,58.98
2019-02-28T00:13:22.426Z,51.18
2019-02-28T00:15:49.016Z,50.55
2019-02-28T00:18:16.488Z,45.45
2019-02-28T00:20:43.319Z,44.18
2019-02-28T00:23:09.646Z,50.35
2019-02-28T00:25:38.058Z,48.58
2019-02-28T00:28:04.175Z,50.33
2019-02-28T00:30:30.580Z,57.03
2019-02-28T00:32:59.325Z,55.00
2019-02-28T00:35:25.394Z,46.88
2019-02-28T00:37:51.792Z,43.48
2019-02-28T00:40:18.108Z,47.25
2019-02-28T00:42:44.407Z,44.25
2019-02-28T00:45:13.319Z,47.93
2019-02-28T00:47:39.634Z,46.25
2019-02-28T00:50:06.344Z,39.08
2019-02-28T00:52:35.471Z,36.13
2019-02-28T00:55:00.883Z,36.60
2019-02-28T00:57:27.592Z,35.20
2019-02-28T00:59:53.979Z,35.90
2019-02-28T01:02:20.649Z,32.23
2019-02-28T01:04:47.040Z,30.77
2019-02-28T01:07:16.252Z,27.20
2019-02-28T01:09:41.925Z,30.05
2019-02-28T01:12:08.521Z,31.02
2019-02-28T01:14:35.805Z,30.40
2019-02-28T01:17:03.007Z,30.80
2019-02-28T01:19:29.547Z,35.45
2019-02-28T01:21:56.297Z,43.50
2019-02-28T01:24:22.678Z,39.70
2019-02-28T01:26:49.099Z,39.18
2019-02-28T01:29:15.491Z,41.65
2019-02-28T01:31:42.631Z,38.65
2019-02-28T01:34:09.867Z,37.95
2019-02-28T01:36:36.301Z,35.55
2019-02-28T01:39:04.627Z,48.13
2019-02-28T01:41:30.955Z,47.00
2019-02-28T01:43:57.339Z,43.23
2019-02-28T01:46:23.682Z,46.28
2019-02-28T01:48:50.226Z,40.70
2019-02-28T01:51:16.656Z,42.17
2019-02-28T01:53:42.941Z,37.58
2019-02-28T01:56:09.485Z,26.27
2019-02-28T01:58:35.892Z,27.75
2019-02-28T02:01:02.405Z,26.62
2019-02-28T02:03:28.691Z,26.50
2019-02-28T02:05:55.132Z,24.43
2019-02-28T02:08:21.603Z,22.35
2019-02-28T02:10:48.156Z,24.02
2019-02-28T02:13:14.646Z,22.87
2019-02-28T02:15:41.038Z,20.92
2019-02-28T02:18:09.310Z,20.85
2019-02-28T02:20:35.913Z,20.77
2019-02-28T02:23:02.247Z,19.87
2019-02-28T02:25:28.531Z,19.62
2019-02-28T02:27:55.032Z,19.02
2019-02-28T02:30:22.921Z,18.90
2019-02-28T02:32:49.339Z,19.10
2019-02-28T02:35:15.741Z,20.12
2019-02-28T02:37:42.085Z,19.27
2019-02-28T02:40:12.089Z,16.75
2019-02-28T02:42:38.417Z,17.77
2019-02-28T02:45:08.253Z,17.73
2019-02-28T02:47:34.685Z,15.85
2019-02-28T02:50:01.072Z,15.03
2019-02-28T02:52:30.452Z,14.87
2019-02-28T02:54:55.868Z,17.48
2019-02-28T02:57:22.198Z,15.53
2019-02-28T02:59:48.516Z,15.25
2019-02-28T03:02:15.037Z,17.37
2019-02-28T03:04:41.869Z,15.48
2019-02-28T03:07:08.257Z,16.10
2019-02-28T03:09:34.927Z,18.62
2019-02-28T03:12:01.397Z,18.25
2019-02-28T03:14:27.899Z,17.15
2019-02-28T03:16:54.424Z,17.05
2019-02-28T03:19:20.770Z,17.98
2019-02-28T03:21:51.882Z,17.30
2019-02-28T03:24:16.426Z,16.05
2019-02-28T03:26:43.411Z,15.70
2019-02-28T03:29:09.911Z,16.40
2019-02-28T03:31:36.270Z,15.40
2019-02-28T03:34:10.113Z,14.75
2019-02-28T03:36:31.353Z,15.75
2019-02-28T03:38:57.737Z,15.45
2019-02-28T03:41:24.504Z,15.38
2019-02-28T03:43:50.929Z,15.40
2019-02-28T03:46:17.386Z,14.13
2019-02-28T03:48:43.875Z,15.15
2019-02-28T03:51:10.267Z,15.53
2019-02-28T03:53:36.701Z,14.83
2019-02-28T03:56:03.138Z,15.70
2019-02-28T03:58:29.948Z,15.63
2019-02-28T04:00:56.530Z,16.10
2019-02-28T04:03:22.840Z,16.00
2019-02-28T04:05:49.253Z,15.93
2019-02-28T04:08:15.561Z,16.77
2019-02-28T04:10:41.998Z,15.20
2019-02-28T04:13:08.447Z,15.53
2019-02-28T04:15:35.036Z,16.67
2019-02-28T04:18:07.053Z,17.02
2019-02-28T04:20:36.148Z,16.75
2019-02-28T04:22:59.870Z,17.80
2019-02-28T04:25:26.637Z,16.15
2019-02-28T04:27:53.108Z,15.60
2019-02-28T04:30:19.425Z,16.48
2019-02-28T04:32:45.813Z,15.03
2019-02-28T04:35:12.381Z,15.53
2019-02-28T04:37:45.019Z,16.52
2019-02-28T04:40:09.836Z,15.20
2019-02-28T04:42:38.293Z,15.32
2019-02-28T04:45:11.479Z,14.25
2019-02-28T04:47:40.516Z,12.85
2019-02-28T04:50:10.012Z,12.82
2019-02-28T04:52:36.464Z,12.95
2019-02-28T04:55:04.641Z,12.88
2019-02-28T04:57:30.959Z,12.35
2019-02-28T04:59:57.360Z,12.05
2019-02-28T05:02:23.788Z,11.83
2019-02-28T05:04:50.535Z,13.50
2019-02-28T05:07:16.926Z,12.95
2019-02-28T05:09:45.240Z,12.70
2019-02-28T05:12:11.660Z,13.60
2019-02-28T05:14:37.964Z,13.50
2019-02-28T05:17:04.331Z,12.88
2019-02-28T05:19:32.371Z,13.00
2019-02-28T05:21:58.993Z,13.32
2019-02-28T05:24:25.347Z,13.25
2019-02-28T05:26:51.646Z,13.08
2019-02-28T05:29:18.246Z,15.88
2019-02-28T05:31:44.527Z,15.93
2019-02-28T05:34:13.183Z,27.55
2019-02-28T05:36:39.361Z,32.98
2019-02-28T05:39:05.683Z,31.90
2019-02-28T05:41:31.967Z,33.00
2019-02-28T05:43:58.407Z,27.55
2019-02-28T05:46:24.699Z,27.45
2019-02-28T05:48:51.112Z,28.95
2019-02-28T05:51:17.601Z,27.27
2019-02-28T05:53:44.123Z,24.92
2019-02-28T05:56:10.483Z,20.95
2019-02-28T05:58:36.766Z,18.23
2019-02-28T06:01:03.267Z,20.65
2019-02-28T06:03:30.400Z,24.55
2019-02-28T06:05:56.984Z,26.15
2019-02-28T06:08:23.451Z,30.45
2019-02-28T06:10:49.900Z,31.48
2019-02-28T06:13:18.299Z,30.80
2019-02-28T06:15:44.791Z,32.28
2019-02-28T06:18:11.719Z,31.73
2019-02-28T06:20:38.139Z,27.58
2019-02-28T06:23:06.256Z,28.73
2019-02-28T06:25:32.936Z,24.40
2019-02-28T06:27:59.499Z,27.73
2019-02-28T06:30:27.666Z,36.17
2019-02-28T06:32:57.814Z,35.65
2019-02-28T06:35:22.528Z,39.00
2019-02-28T06:37:48.954Z,35.68
2019-02-28T06:40:16.093Z,33.40
2019-02-28T06:42:43.470Z,31.82
2019-02-28T06:45:18.972Z,36.15
2019-02-28T06:47:48.713Z,43.92
2019-02-28T06:50:15.583Z,37.65
2019-02-28T06:52:42.078Z,31.77
2019-02-28T06:55:12.610Z,31.77
2019-02-28T06:57:39.077Z,33.67
2019-02-28T07:00:14.549Z,31.55
2019-02-28T07:02:40.963Z,26.37
2019-02-28T07:05:07.280Z,23.87
2019-02-28T07:07:33.624Z,18.25
2019-02-28T07:10:00.284Z,19.57
2019-02-28T07:12:29.799Z,18.00
2019-02-28T07:14:54.921Z,18.37
2019-02-28T07:17:21.454Z,17.00
2019-02-28T07:19:48.102Z,17.90
2019-02-28T07:22:19.204Z,18.42
2019-02-28T07:24:43.172Z,18.60
2019-02-28T07:27:09.531Z,18.70
2019-02-28T07:29:37.831Z,18.35
2019-02-28T07:32:04.433Z,18.45
2019-02-28T07:34:30.715Z,20.12
2019-02-28T07:36:57.287Z,22.95
2019-02-28T07:39:23.965Z,21.60
2019-02-28T07:41:50.603Z,17.87
2019-02-28T07:44:21.197Z,18.15
2019-02-28T07:46:45.438Z,15.20
2019-02-28T07:49:11.827Z,14.07
2019-02-28T07:51:38.477Z,13.58
2019-02-28T07:54:04.874Z,14.47
2019-02-28T07:56:31.231Z,14.53
2019-02-28T07:58:57.560Z,13.62
2019-02-28T08:01:24.516Z,14.73
2019-02-28T08:03:52.359Z,13.10
2019-02-28T08:06:18.748Z,14.05
2019-02-28T08:08:45.155Z,13.78
2019-02-28T08:11:11.588Z,13.13
2019-02-28T08:13:38.643Z,12.93
2019-02-28T08:16:05.219Z,12.65
2019-02-28T08:18:31.726Z,12.00
2019-02-28T08:20:58.190Z,11.93
2019-02-28T08:23:24.679Z,11.38
2019-02-28T08:25:51.312Z,11.60
2019-02-28T08:28:18.115Z,11.83
2019-02-28T08:30:44.698Z,11.00
2019-02-28T08:33:11.178Z,11.95
2019-02-28T08:35:37.629Z,11.78
2019-02-28T08:38:03.906Z,10.95
2019-02-28T08:40:30.276Z,10.85
2019-02-28T08:42:56.686Z,11.40
2019-02-28T08:45:22.987Z,12.03
2019-02-28T08:47:55.417Z,11.03
2019-02-28T08:50:24.272Z,11.55
2019-02-28T08:53:04.533Z,10.85
2019-02-28T08:55:30.930Z,11.90
2019-02-28T08:58:04.427Z,11.85
2019-02-28T09:00:31.255Z,11.20
2019-02-28T09:02:54.877Z,11.57
2019-02-28T09:05:25.469Z,10.38
2019-02-28T09:07:51.289Z,11.55
2019-02-28T09:10:19.743Z,11.73
2019-02-28T09:12:46.405Z,11.95
2019-02-28T09:15:17.067Z,12.35
2019-02-28T09:17:43.476Z,12.10
2019-02-28T09:20:14.123Z,12.13
2019-02-28T09:22:40.856Z,11.85
2019-02-28T09:25:23.705Z,11.75
2019-02-28T09:27:50.114Z,11.97
2019-02-28T09:30:29.777Z,11.33
2019-02-28T09:32:57.675Z,11.63
2019-02-28T09:35:24.184Z,12.15
2019-02-28T09:37:50.628Z,12.43
2019-02-28T09:40:17.028Z,12.13
2019-02-28T09:42:44.564Z,12.03
2019-02-28T09:45:20.722Z,12.45
2019-02-28T09:50:22.611Z,13.22
2019-02-28T09:52:49.750Z,12.85
2019-02-28T09:55:16.240Z,12.60
2019-02-28T09:57:42.685Z,13.48
2019-02-28T10:00:18.833Z,13.48
2019-02-28T10:02:45.354Z,12.68
2019-02-28T10:05:12.210Z,12.90
2019-02-28T10:07:38.743Z,13.32
2019-02-28T10:10:26.340Z,13.48
2019-02-28T10:12:52.992Z,13.90
2019-02-28T10:15:21.424Z,14.25
2019-02-28T10:17:47.849Z,14.40
2019-02-28T10:20:18.400Z,15.20
2019-02-28T10:22:47.337Z,14.03
2019-02-28T10:25:14.007Z,14.73
2019-02-28T10:27:40.582Z,14.58
2019-02-28T10:30:15.614Z,14.87
2019-02-28T10:32:43.334Z,15.13
2019-02-28T10:35:09.115Z,14.73
2019-02-28T10:37:35.783Z,15.08
2019-02-28T10:40:09.732Z,15.65
2019-02-28T10:42:36.992Z,13.98
2019-02-28T10:45:09.077Z,14.23
2019-02-28T10:47:35.409Z,14.63
2019-02-28T10:50:01.977Z,14.33
2019-02-28T10:52:30.650Z,14.40
2019-02-28T10:54:57.028Z,14.95
2019-02-28T10:57:23.333Z,13.70
2019-02-28T10:59:49.792Z,14.25
2019-02-28T11:02:18.937Z,13.18
2019-02-28T11:04:45.295Z,14.07
2019-02-28T11:07:11.715Z,14.93
2019-02-28T11:09:38.288Z,14.50
2019-02-28T11:12:04.829Z,14.68
2019-02-28T11:14:31.152Z,13.55
2019-02-28T11:16:59.396Z,14.87
2019-02-28T11:19:25.944Z,12.07
2019-02-28T11:21:52.510Z,11.38
2019-02-28T11:24:20.627Z,12.85
2019-02-28T11:26:47.265Z,11.53
2019-02-28T11:29:13.589Z,15.23
2019-02-28T11:31:39.877Z,13.90
2019-02-28T11:34:06.508Z,11.68
2019-02-28T11:36:33.986Z,13.98
2019-02-28T11:39:01.451Z,14.07
2019-02-28T11:41:27.848Z,13.75
2019-02-28T11:43:54.243Z,15.43
2019-02-28T11:46:20.545Z,14.43
2019-02-28T11:48:46.879Z,15.10
2019-02-28T11:51:14.620Z,13.20
2019-02-28T11:53:41.819Z,13.40
2019-02-28T11:56:08.103Z,14.05
2019-02-28T11:58:34.508Z,13.35
2019-02-28T12:01:02.296Z,13.05
2019-02-28T12:03:31.854Z,13.38
2019-02-28T12:05:57.476Z,14.58
2019-02-28T12:08:23.898Z,13.35
2019-02-28T12:10:50.376Z,14.25
2019-02-28T12:13:19.629Z,14.63
2019-02-28T12:15:44.946Z,13.93
2019-02-28T12:18:11.603Z,13.98
2019-02-28T12:20:38.016Z,14.20
2019-02-28T12:23:04.348Z,21.40
2019-02-28T12:25:30.638Z,14.98
2019-02-28T12:27:59.352Z,20.52
2019-02-28T12:30:31.103Z,29.40
2019-02-28T12:32:57.423Z,37.48
2019-02-28T12:35:23.817Z,19.95
2019-02-28T12:37:50.251Z,23.47
2019-02-28T12:40:23.946Z,19.57
2019-02-28T12:42:50.605Z,16.23
2019-02-28T12:45:25.524Z,16.17
2019-02-28T12:47:52.093Z,19.12
2019-02-28T12:50:18.455Z,26.57
2019-02-28T12:52:49.052Z,20.77
2019-02-28T12:55:18.264Z,17.25
2019-02-28T12:57:44.593Z,16.42
2019-02-28T13:00:43.044Z,14.63
2019-02-28T13:03:10.508Z,15.45
2019-02-28T13:05:36.956Z,15.05
2019-02-28T13:08:05.811Z,17.45
2019-02-28T13:10:32.131Z,19.90
2019-02-28T13:13:06.447Z,16.70
2019-02-28T13:15:27.403Z,18.07
2019-02-28T13:17:53.692Z,15.88
2019-02-28T13:20:33.700Z,16.82
2019-02-28T13:22:59.650Z,17.37
2019-02-28T13:25:26.050Z,17.55
2019-02-28T13:27:52.573Z,18.27
2019-02-28T13:30:22.604Z,20.05
2019-02-28T13:32:49.088Z,20.82
2019-02-28T13:35:22.553Z,20.27
2019-02-28T13:37:48.895Z,37.80
2019-02-28T13:40:15.283Z,25.02
2019-02-28T13:42:42.325Z,29.48
2019-02-28T13:45:23.075Z,28.47
2019-02-28T13:47:47.818Z,31.20
2019-02-28T13:50:22.033Z,46.58
2019-02-28T13:52:52.171Z,67.90
2019-02-28T13:55:18.902Z,91.50
2019-02-28T13:57:47.033Z,51.53
2019-02-28T14:00:27.571Z,34.08
2019-02-28T14:02:56.954Z,22.27
2019-02-28T14:05:23.313Z,62.83
2019-02-28T14:07:49.624Z,27.52
2019-02-28T14:10:17.740Z,34.58
2019-02-28T14:12:44.294Z,32.40
2019-02-28T14:18:32.136Z,40.98
2019-02-28T14:20:59.448Z,27.00
2019-02-28T14:23:26.780Z,54.53
2019-02-28T14:25:53.345Z,36.88
2019-02-28T14:28:19.814Z,55.25
2019-02-28T14:30:46.242Z,83.62
2019-02-28T14:33:12.582Z,57.80
2019-02-28T14:35:38.988Z,32.15
2019-02-28T14:38:05.561Z,47.33
2019-02-28T14:40:31.947Z,55.40
2019-02-28T14:42:58.380Z,56.60
2019-02-28T14:45:34.597Z,44.77
2019-02-28T14:50:29.103Z,35.52
2019-02-28T14:52:56.800Z,32.48
2019-02-28T14:55:23.332Z,28.42
2019-02-28T14:57:49.868Z,34.73
2019-02-28T15:00:25.072Z,32.75
2019-02-28T15:02:51.484Z,25.23
2019-02-28T15:05:20.499Z,30.62
2019-02-28T15:07:46.120Z,38.88
2019-02-28T15:10:23.075Z,21.35
2019-02-28T15:12:49.468Z,28.10
2019-02-28T15:15:18.898Z,36.30
2019-02-28T15:17:45.462Z,22.52
2019-02-28T15:20:13.512Z,22.25
2019-02-28T15:22:40.133Z,27.65
2019-02-28T15:25:23.335Z,27.58
2019-02-28T15:27:49.969Z,36.45
2019-02-28T15:30:26.523Z,37.15
2019-02-28T15:32:54.243Z,53.78
2019-02-28T15:35:21.912Z,26.97
2019-02-28T15:37:48.247Z,37.58
2019-02-28T15:40:28.849Z,44.98
2019-02-28T15:42:55.314Z,46.23
2019-02-28T15:45:22.025Z,48.55
2019-02-28T15:47:50.538Z,36.68
2019-02-28T15:50:17.156Z,44.08
2019-02-28T15:52:43.792Z,35.33
2019-02-28T15:55:16.451Z,40.40
2019-02-28T15:57:42.781Z,44.18
2019-02-28T16:00:22.088Z,41.25
2019-02-28T16:02:48.364Z,38.23
2019-02-28T16:05:14.697Z,43.50
2019-02-28T16:07:41.163Z,40.15
2019-02-28T16:10:12.352Z,36.55
2019-02-28T16:12:38.655Z,23.05
2019-02-28T16:15:11.915Z,32.83
2019-02-28T16:17:37.400Z,42.15
2019-02-28T16:20:08.604Z,44.25
2019-02-28T16:22:35.094Z,52.70
2019-02-28T16:25:01.592Z,45.60
2019-02-28T16:27:29.533Z,53.70
2019-02-28T16:29:56.733Z,62.65
2019-02-28T16:32:23.263Z,37.38
2019-02-28T16:34:49.618Z,38.45
2019-02-28T16:37:16.435Z,38.48
2019-02-28T16:39:42.987Z,31.55
2019-02-28T16:42:11.598Z,48.33
2019-02-28T16:44:37.496Z,37.63
2019-02-28T16:47:03.986Z,39.88
2019-02-28T16:49:30.354Z,44.73
2019-02-28T16:51:56.788Z,31.80
2019-02-28T16:54:23.685Z,28.30
2019-02-28T17:00:21.448Z,39.90
2019-02-28T17:02:47.747Z,38.55
2019-02-28T17:05:13.964Z,40.73
2019-02-28T17:07:40.532Z,31.45
2019-02-28T17:10:14.134Z,29.10
2019-02-28T17:12:59.532Z,29.15
2019-02-28T17:15:35.155Z,27.50
2019-02-28T17:18:03.458Z,25.43
2019-02-28T17:20:29.823Z,25.97
2019-02-28T17:22:58.555Z,27.10
2019-02-28T17:25:24.457Z,26.37
2019-02-28T17:27:58.680Z,25.35
2019-02-28T17:30:36.000Z,22.50
2019-02-28T17:33:01.168Z,23.35
2019-02-28T17:35:27.552Z,27.40
2019-02-28T17:37:53.869Z,25.77
2019-02-28T17:40:23.190Z,24.20
2019-02-28T17:42:49.824Z,24.12
2019-02-28T17:45:20.586Z,25.23
2019-02-28T17:48:09.691Z,24.18
2019-02-28T17:50:47.799Z,22.10
2019-02-28T17:53:59.560Z,23.95
2019-02-28T17:57:10.639Z,30.02
2019-02-28T18:00:24.083Z,28.67
2019-02-28T18:03:22.985Z,26.45
2019-02-28T18:06:00.636Z,27.13
2019-02-28T18:08:47.441Z,28.20
2019-02-28T18:11:35.104Z,31.00
2019-02-28T18:14:42.351Z,29.45
2019-02-28T18:17:38.777Z,27.32
2019-02-28T18:20:29.060Z,26.52
2019-02-28T18:23:24.890Z,25.77
2019-02-28T18:26:15.192Z,27.65
2019-02-28T18:28:58.101Z,27.65
2019-02-28T18:31:24.338Z,27.65
2019-02-28T18:33:54.744Z,31.07
2019-02-28T18:36:27.431Z,28.30
2019-02-28T18:38:53.734Z,27.85
2019-02-28T18:41:20.199Z,28.55
2019-02-28T18:43:46.389Z,31.40
2019-02-28T18:46:12.695Z,31.15
2019-02-28T18:48:39.004Z,28.55
2019-02-28T18:51:05.320Z,30.20
2019-02-28T18:53:31.837Z,30.15
2019-02-28T18:55:58.204Z,30.37
2019-02-28T18:58:24.541Z,31.75
2019-02-28T19:00:50.935Z,31.27
2019-02-28T19:03:17.371Z,29.85
2019-02-28T19:05:43.843Z,29.67
2019-02-28T19:08:10.407Z,30.95
2019-02-28T19:10:36.912Z,33.18
2019-02-28T19:13:04.538Z,32.80
2019-02-28T19:15:31.031Z,34.73
2019-02-28T19:17:57.705Z,33.13
2019-02-28T19:20:24.033Z,33.00
2019-02-28T19:22:50.350Z,33.20
2019-02-28T19:25:16.897Z,32.75
2019-02-28T19:27:43.244Z,36.42
2019-02-28T19:30:14.316Z,40.75
2019-02-28T19:32:40.725Z,36.80
2019-02-28T19:35:07.175Z,40.63
2019-02-28T19:37:33.435Z,43.90
2019-02-28T19:39:59.829Z,46.13
2019-02-28T19:42:26.183Z,39.40
2019-02-28T19:44:52.476Z,38.02
2019-02-28T19:47:18.766Z,37.17
2019-02-28T19:49:45.144Z,33.35
2019-02-28T19:52:11.335Z,34.50
2019-02-28T19:54:37.655Z,35.73
2019-02-28T19:57:03.965Z,37.08
2019-02-28T19:59:30.408Z,36.42
2019-02-28T20:01:56.826Z,33.58
2019-02-28T20:04:23.126Z,32.40
2019-02-28T20:06:49.428Z,33.42
2019-02-28T20:09:15.939Z,35.65
2019-02-28T20:11:42.248Z,36.08
2019-02-28T20:14:08.785Z,35.50
2019-02-28T20:16:35.184Z,34.10
2019-02-28T20:19:01.748Z,35.83
2019-02-28T20:21:28.195Z,36.85
2019-02-28T20:23:54.532Z,34.48
2019-02-28T20:26:20.965Z,33.63
2019-02-28T20:28:47.603Z,34.90
2019-02-28T20:31:14.129Z,34.63
2019-02-28T20:33:40.682Z,36.48
2019-02-28T20:36:06.968Z,33.88
2019-02-28T20:38:33.483Z,35.23
2019-02-28T20:40:59.847Z,36.35
2019-02-28T20:43:26.277Z,33.28
2019-02-28T20:45:52.572Z,34.40
2019-02-28T20:48:18.998Z,33.18
2019-02-28T20:50:52.155Z,32.78
2019-02-28T20:53:18.351Z,33.65
2019-02-28T20:55:44.672Z,34.63
2019-02-28T20:58:10.988Z,33.18
2019-02-28T21:00:37.583Z,33.13
2019-02-28T21:03:03.873Z,34.27
2019-02-28T21:05:30.176Z,34.27
2019-02-28T21:07:56.814Z,35.60
2019-02-28T21:10:23.275Z,35.10
2019-02-28T21:12:49.616Z,33.48
2019-02-28T21:15:16.138Z,34.85
2019-02-28T21:17:42.651Z,35.68
2019-02-28T21:20:14.657Z,35.75
2019-02-28T21:22:40.954Z,34.27
2019-02-28T21:25:13.937Z,34.33
2019-02-28T21:27:40.223Z,34.67
2019-02-28T21:30:25.555Z,34.73
2019-02-28T21:32:52.036Z,37.35
2019-02-28T21:35:18.705Z,33.70
2019-02-28T21:37:46.848Z,35.28
2019-02-28T21:40:17.989Z,34.23
2019-02-28T21:42:44.377Z,34.88
2019-02-28T21:45:17.180Z,33.02
2019-02-28T21:47:43.467Z,35.45
2019-02-28T21:50:15.143Z,36.28
2019-02-28T21:52:41.526Z,34.65
2019-02-28T21:55:11.274Z,33.60
2019-02-28T21:57:37.763Z,36.13
2019-02-28T22:00:09.575Z,35.78
2019-02-28T22:02:35.932Z,35.43
2019-02-28T22:05:02.372Z,35.85
2019-02-28T22:07:28.686Z,35.38
2019-02-28T22:09:55.155Z,34.10
2019-02-28T22:12:21.550Z,34.50
2019-02-28T22:14:48.015Z,36.13
2019-02-28T22:17:14.374Z,35.25
2019-02-28T22:19:40.886Z,35.13
2019-02-28T22:22:07.545Z,37.05
2019-02-28T22:24:33.885Z,36.00
2019-02-28T22:27:00.284Z,33.78
2019-02-28T22:29:26.650Z,32.65
2019-02-28T22:31:57.570Z,33.63
2019-02-28T22:34:31.539Z,34.45
2019-02-28T22:36:57.900Z,33.25
2019-02-28T22:39:24.391Z,34.43
2019-02-28T22:41:50.600Z,34.63
2019-02-28T22:44:16.989Z,33.70
2019-02-28T22:46:43.279Z,33.98
2019-02-28T22:49:09.647Z,33.98
2019-02-28T22:51:36.183Z,34.95
2019-02-28T22:54:02.617Z,35.85
2019-02-28T22:56:28.924Z,34.35
2019-02-28T22:58:55.303Z,35.88
2019-02-28T23:01:22.116Z,36.05
2019-02-28T23:03:48.654Z,35.85
2019-02-28T23:06:15.017Z,36.90
2019-02-28T23:08:41.628Z,36.95
2019-02-28T23:11:07.980Z,36.10
2019-02-28T23:13:34.440Z,36.90
2019-02-28T23:16:00.726Z,37.10
2019-02-28T23:18:27.448Z,36.28
2019-02-28T23:20:53.970Z,38.30
2019-02-28T23:23:20.298Z,37.67
2019-02-28T23:25:46.926Z,37.95
2019-02-28T23:28:24.413Z,36.77
2019-02-28T23:31:30.172Z,36.00
2019-02-28T23:34:10.667Z,37.25
2019-02-28T23:36:37.303Z,38.08
2019-02-28T23:39:05.739Z,37.17
2019-02-28T23:41:32.055Z,36.65
2019-02-28T23:43:58.866Z,37.33
2019-02-28T23:46:25.293Z,38.63
2019-02-28T23:48:51.721Z,37.33
2019-02-28T23:51:18.061Z,38.78
2019-02-28T23:53:44.468Z,38.55
2019-02-28T23:56:10.895Z,38.33
2019-02-28T23:58:37.327Z,40.08
